Time;durP1;ratioP1;P1;durP2;ratioP2;P2;SDS_P1;SDS_P2;PMS_P1;PMS_P2;Temp;Humidity;BMP_temperature;BMP_pressure;BME280_temperature;BME280_humidity;BME280_pressure;Samples;Min_cycle;Max_cycle;Signal;HPM_P1;HPM_P2
2022/08/30 00:01:04;;;;;;;;;;;;;;;;;;2132039;27;19946;-45
2022/08/30 00:02:05;;;;;;;;;;;;;;;;;;2131632;27;20292;-46
2022/08/30 00:03:07;;;;;;;;;;;;;;;;;;2132102;27;19923;-44
2022/08/30 00:04:07;;;;;;;;;;;;;;;;;;2132060;27;19923;-46
2022/08/30 00:05:09;;;;;;;;;;;;;;;;;;2131864;27;20360;-44
2022/08/30 00:06:09;;;;;;;;;;;;;;;;;;2131990;27;20006;-45
2022/08/30 00:07:10;;;;;;;;;;;;;;;;;;2132019;27;19923;-44
2022/08/30 00:08:11;;;;;;;;;;;;;;;;;;2132059;27;19923;-43
2022/08/30 00:09:13;;;;;;;;;;;;;;;;;;2131897;27;19923;-44
2022/08/30 00:10:13;;;;;;;;;;;;;;;;;;2131773;27;20022;-44
2022/08/30 00:11:14;;;;;;;;;;;;;;;;;;2129565;27;19970;-44
2022/08/30 00:12:15;;;;;;;;;;;;;;;;;;2123335;28;19923;-43
2022/08/30 00:13:16;;;;;;;;;;;;;;;;;;2123425;28;19923;-44
2022/08/30 00:14:19;;;;;;;;;;;;;;;;;;2123432;28;19930;-44
2022/08/30 00:15:20;;;;;;;;;;;;;;;;;;2123447;28;19928;-45
2022/08/30 00:16:20;;;;;;;;;;;;;;;;;;2123084;27;19931;-45
2022/08/30 00:17:22;;;;;;;;;;;;;;;;;;2123522;28;20356;-45
2022/08/30 00:18:22;;;;;;;;;;;;;;;;;;2123231;28;19927;-44
2022/08/30 00:19:25;;;;;;;;;;;;;;;;;;2123326;28;19940;-45
2022/08/30 00:20:25;;;;;;;;;;;;;;;;;;2123261;28;20018;-46
2022/08/30 00:21:26;;;;;;;;;;;;;;;;;;2123412;27;20014;-46
2022/08/30 00:22:27;;;;;;;;;;;;;;;;;;2123167;28;20061;-45
2022/08/30 00:23:28;;;;;;;;;;;;;;;;;;2123349;28;19976;-45
2022/08/30 00:24:29;;;;;;;;;;;;;;;;;;2123364;28;19923;-46
2022/08/30 00:25:30;;;;;;;;;;;;;;;;;;2123223;28;19923;-45
2022/08/30 00:26:31;;;;;;;;;;;;;;;;;;2123323;27;19931;-44
2022/08/30 00:27:32;;;;;;;;;;;;;;;;;;2123196;28;19924;-46
2022/08/30 00:28:32;;;;;;;;;;;;;;;;;;2123242;28;19927;-47
2022/08/30 00:29:33;;;;;;;;;;;;;;;;;;2123208;28;19984;-45
2022/08/30 00:30:34;;;;;;;;;;;;;;;;;;2123274;27;19924;-44
2022/08/30 00:31:35;;;;;;;;;;;;;;;;;;2122581;27;19929;-44
2022/08/30 00:32:36;;;;;;;;;;;;;;;;;;2123123;28;19927;-45
2022/08/30 00:33:37;;;;;;;;;;;;;;;;;;2123048;28;19924;-46
2022/08/30 00:34:38;;;;;;;;;;;;;;;;;;2123246;28;20002;-46
2022/08/30 00:35:39;;;;;;;;;;;;;;;;;;2123210;28;19923;-44
2022/08/30 00:36:39;;;;;;;;;;;;;;;;;;2123200;27;19927;-45
2022/08/30 00:37:40;;;;;;;;;;;;;;;;;;2123118;28;19970;-45
2022/08/30 00:38:41;;;;;;;;;;;;;;;;;;2123181;28;19923;-45
2022/08/30 00:39:42;;;;;;;;;;;;;;;;;;2123283;28;19930;-44
2022/08/30 00:40:43;;;;;;;;;;;;;;;;;;2122971;28;19935;-44
2022/08/30 00:41:44;;;;;;;;;;;;;;;;;;2123249;27;19924;-45
2022/08/30 00:42:45;;;;;;;;;;;;;;;;;;2123141;28;20061;-45
2022/08/30 00:43:46;;;;;;;;;;;;;;;;;;2123394;28;20056;-44
2022/08/30 00:44:46;;;;;;;;;;;;;;;;;;2123159;28;19923;-44
2022/08/30 00:45:47;;;;;;;;;;;;;;;;;;2123222;28;20378;-46
2022/08/30 00:46:48;;;;;;;;;;;;;;;;;;2123154;27;19923;-45
2022/08/30 00:47:49;;;;;;;;;;;;;;;;;;2123092;28;20052;-45
2022/08/30 00:48:51;;;;;;;;;;;;;;;;;;2123160;28;19923;-47
2022/08/30 00:49:52;;;;;;;;;;;;;;;;;;2123014;28;20322;-45
2022/08/30 00:50:54;;;;;;;;;;;;;;;;;;2123456;28;20044;-44
2022/08/30 00:51:55;;;;;;;;;;;;;;;;;;2122971;27;20345;-45
2022/08/30 00:52:56;;;;;;;;;;;;;;;;;;2123095;28;20372;-45
2022/08/30 00:53:57;;;;;;;;;;;;;;;;;;2123075;28;19923;-44
2022/08/30 00:54:57;;;;;;;;;;;;;;;;;;2123080;28;20022;-46
2022/08/30 00:55:58;;;;;;;;;;;;;;;;;;2123037;27;19962;-45
2022/08/30 00:56:59;;;;;;;;;;;;;;;;;;2123138;27;20109;-47
2022/08/30 00:58:00;;;;;;;;;;;;;;;;;;2128044;27;20022;-45
2022/08/30 00:59:01;;;;;;;;;;;;;;;;;;2131581;27;19954;-46
2022/08/30 01:00:02;;;;;;;;;;;;;;;;;;2131660;27;19924;-46
2022/08/30 01:01:03;;;;;;;;;;;;;;;;;;2131588;27;19938;-45
2022/08/30 01:02:04;;;;;;;;;;;;;;;;;;2131593;27;19923;-45
2022/08/30 01:03:07;;;;;;;;;;;;;;;;;;2131564;27;19927;-45
2022/08/30 01:04:08;;;;;;;;;;;;;;;;;;2131651;27;20022;-45
2022/08/30 01:05:09;;;;;;;;;;;;;;;;;;2131674;27;19923;-46
2022/08/30 01:06:10;;;;;;;;;;;;;;;;;;2131652;27;20002;-46
2022/08/30 01:07:11;;;;;;;;;;;;;;;;;;2131624;27;20001;-45
2022/08/30 01:08:14;;;;;;;;;;;;;;;;;;2131583;27;19923;-45
2022/08/30 01:09:15;;;;;;;;;;;;;;;;;;2131732;27;20013;-44
2022/08/30 01:10:16;;;;;;;;;;;;;;;;;;2131456;27;20187;-45
2022/08/30 01:11:17;;;;;;;;;;;;;;;;;;2131313;27;19980;-44
2022/08/30 01:12:18;;;;;;;;;;;;;;;;;;2131498;27;19926;-45
2022/08/30 01:13:18;;;;;;;;;;;;;;;;;;2131643;27;20398;-45
2022/08/30 01:14:20;;;;;;;;;;;;;;;;;;2131314;27;19923;-45
2022/08/30 01:15:21;;;;;;;;;;;;;;;;;;2131533;27;19927;-44
2022/08/30 01:16:22;;;;;;;;;;;;;;;;;;2131369;27;19949;-45
2022/08/30 01:17:22;;;;;;;;;;;;;;;;;;2131615;27;20156;-45
2022/08/30 01:18:23;;;;;;;;;;;;;;;;;;2131783;27;20339;-45
2022/08/30 01:19:24;;;;;;;;;;;;;;;;;;2131448;27;19924;-45
2022/08/30 01:20:25;;;;;;;;;;;;;;;;;;2131576;27;20489;-44
2022/08/30 01:21:26;;;;;;;;;;;;;;;;;;2131470;27;19930;-45
2022/08/30 01:22:27;;;;;;;;;;;;;;;;;;2131504;27;19923;-45
2022/08/30 01:23:28;;;;;;;;;;;;;;;;;;2131430;27;20436;-45
2022/08/30 01:24:29;;;;;;;;;;;;;;;;;;2131532;27;19927;-44
2022/08/30 01:25:29;;;;;;;;;;;;;;;;;;2131533;27;20010;-45
2022/08/30 01:26:30;;;;;;;;;;;;;;;;;;2131457;27;19923;-44
2022/08/30 01:27:31;;;;;;;;;;;;;;;;;;2131408;27;20330;-45
2022/08/30 01:28:32;;;;;;;;;;;;;;;;;;2131454;27;20013;-45
2022/08/30 01:29:33;;;;;;;;;;;;;;;;;;2131699;27;19975;-45
2022/08/30 01:30:34;;;;;;;;;;;;;;;;;;2131414;27;19968;-45
2022/08/30 01:31:35;;;;;;;;;;;;;;;;;;2131469;27;19923;-45
2022/08/30 01:32:36;;;;;;;;;;;;;;;;;;2131549;27;20026;-45
2022/08/30 01:33:37;;;;;;;;;;;;;;;;;;2131491;27;20442;-45
2022/08/30 01:34:38;;;;;;;;;;;;;;;;;;2131423;27;19930;-45
2022/08/30 01:35:39;;;;;;;;;;;;;;;;;;2131380;27;20403;-45
2022/08/30 01:36:41;;;;;;;;;;;;;;;;;;2131452;27;19931;-45
2022/08/30 01:37:45;;;;;;;;;;;;;;;;;;2131408;27;19968;-44
2022/08/30 01:38:46;;;;;;;;;;;;;;;;;;2131425;27;19923;-45
2022/08/30 01:39:47;;;;;;;;;;;;;;;;;;2131459;27;20021;-45
2022/08/30 01:40:48;;;;;;;;;;;;;;;;;;2131504;27;19923;-46
2022/08/30 01:41:49;;;;;;;;;;;;;;;;;;2131325;27;19924;-46
2022/08/30 01:42:50;;;;;;;;;;;;;;;;;;2132527;27;19923;-45
2022/08/30 01:43:50;;;;;;;;;;;;;;;;;;2132940;27;19923;-45
2022/08/30 01:44:51;;;;;;;;;;;;;;;;;;2132748;27;20395;-44
2022/08/30 01:45:52;;;;;;;;;;;;;;;;;;2132763;27;20390;-45
2022/08/30 01:46:53;;;;;;;;;;;;;;;;;;2132811;27;19961;-45
2022/08/30 01:47:54;;;;;;;;;;;;;;;;;;2132721;27;20071;-44
2022/08/30 01:48:55;;;;;;;;;;;;;;;;;;2132870;27;20379;-45
2022/08/30 01:49:57;;;;;;;;;;;;;;;;;;2132947;27;19923;-45
2022/08/30 01:50:58;;;;;;;;;;;;;;;;;;2132903;27;20005;-44
2022/08/30 01:51:58;;;;;;;;;;;;;;;;;;2132639;27;20006;-45
2022/08/30 01:53:01;;;;;;;;;;;;;;;;;;2132815;27;20028;-45
2022/08/30 01:54:02;;;;;;;;;;;;;;;;;;2132599;27;19967;-45
2022/08/30 01:55:03;;;;;;;;;;;;;;;;;;2132806;27;20304;-45
2022/08/30 01:56:04;;;;;;;;;;;;;;;;;;2132801;27;19945;-45
2022/08/30 01:57:05;;;;;;;;;;;;;;;;;;2132685;27;19930;-45
2022/08/30 01:58:06;;;;;;;;;;;;;;;;;;2132787;27;19996;-46
2022/08/30 01:59:07;;;;;;;;;;;;;;;;;;2132929;27;19973;-45
2022/08/30 02:00:07;;;;;;;;;;;;;;;;;;2132903;27;19969;-45
2022/08/30 02:01:11;;;;;;;;;;;;;;;;;;2132878;27;20264;-45
2022/08/30 02:02:12;;;;;;;;;;;;;;;;;;2132914;27;19967;-45
2022/08/30 02:03:13;;;;;;;;;;;;;;;;;;2132897;27;19968;-45
2022/08/30 02:04:15;;;;;;;;;;;;;;;;;;2132660;27;19950;-45
2022/08/30 02:05:16;;;;;;;;;;;;;;;;;;2132844;27;19927;-45
2022/08/30 02:06:17;;;;;;;;;;;;;;;;;;2132525;27;19927;-46
2022/08/30 02:07:18;;;;;;;;;;;;;;;;;;2132832;27;19976;-45
2022/08/30 02:08:20;;;;;;;;;;;;;;;;;;2132733;27;19975;-45
2022/08/30 02:09:20;;;;;;;;;;;;;;;;;;2132765;27;20018;-44
2022/08/30 02:10:22;;;;;;;;;;;;;;;;;;2132774;27;20303;-45
2022/08/30 02:11:23;;;;;;;;;;;;;;;;;;2129192;27;19931;-45
2022/08/30 02:12:24;;;;;;;;;;;;;;;;;;2124278;28;19927;-45
2022/08/30 02:13:25;;;;;;;;;;;;;;;;;;2124069;28;20449;-45
2022/08/30 02:14:26;;;;;;;;;;;;;;;;;;2124018;28;19927;-47
2022/08/30 02:15:27;;;;;;;;;;;;;;;;;;2123960;28;20287;-44
2022/08/30 02:16:28;;;;;;;;;;;;;;;;;;2124001;27;19938;-45
2022/08/30 02:17:29;;;;;;;;;;;;;;;;;;2124010;28;20343;-45
2022/08/30 02:18:30;;;;;;;;;;;;;;;;;;2124224;28;19924;-44
2022/08/30 02:19:31;;;;;;;;;;;;;;;;;;2124274;28;19923;-44
2022/08/30 02:20:32;;;;;;;;;;;;;;;;;;2124156;28;19923;-43
2022/08/30 02:21:32;;;;;;;;;;;;;;;;;;2123853;27;20021;-44
2022/08/30 02:22:33;;;;;;;;;;;;;;;;;;2124024;28;20479;-45
2022/08/30 02:23:34;;;;;;;;;;;;;;;;;;2124200;28;19976;-43
2022/08/30 02:24:35;;;;;;;;;;;;;;;;;;2123916;28;20043;-43
2022/08/30 02:25:36;;;;;;;;;;;;;;;;;;2124136;28;19963;-43
2022/08/30 02:26:37;;;;;;;;;;;;;;;;;;2123978;27;19923;-44
2022/08/30 02:27:38;;;;;;;;;;;;;;;;;;2124018;28;19923;-45
2022/08/30 02:28:39;;;;;;;;;;;;;;;;;;2123970;28;19923;-43
2022/08/30 02:29:50;;;;;;;;;;;;;;;;;;2124194;28;19962;-44
2022/08/30 02:30:51;;;;;;;;;;;;;;;;;;2124003;28;20391;-43
2022/08/30 02:31:51;;;;;;;;;;;;;;;;;;2123930;27;19923;-43
2022/08/30 02:32:52;;;;;;;;;;;;;;;;;;2123904;28;19924;-43
2022/08/30 02:33:53;;;;;;;;;;;;;;;;;;2123968;28;20468;-43
2022/08/30 02:34:54;;;;;;;;;;;;;;;;;;2123919;28;19935;-43
2022/08/30 02:35:55;;;;;;;;;;;;;;;;;;2123924;28;20019;-44
2022/08/30 02:36:56;;;;;;;;;;;;;;;;;;2123972;27;19923;-43
2022/08/30 02:37:57;;;;;;;;;;;;;;;;;;2123920;28;20399;-46
2022/08/30 02:38:58;;;;;;;;;;;;;;;;;;2124102;28;19975;-45
2022/08/30 02:39:58;;;;;;;;;;;;;;;;;;2123890;28;19930;-45
2022/08/30 02:40:59;;;;;;;;;;;;;;;;;;2124093;28;19927;-43
2022/08/30 02:42:00;;;;;;;;;;;;;;;;;;2123924;27;20006;-44
2022/08/30 02:43:01;;;;;;;;;;;;;;;;;;2123840;28;20358;-43
2022/08/30 02:44:02;;;;;;;;;;;;;;;;;;2124170;28;19924;-43
2022/08/30 02:45:03;;;;;;;;;;;;;;;;;;2123891;28;19988;-44
2022/08/30 02:46:03;;;;;;;;;;;;;;;;;;2123934;28;20361;-44
2022/08/30 02:47:05;;;;;;;;;;;;;;;;;;2123762;27;19931;-43
2022/08/30 02:48:05;;;;;;;;;;;;;;;;;;2123784;27;20399;-44
2022/08/30 02:49:07;;;;;;;;;;;;;;;;;;2123773;28;19930;-43
2022/08/30 02:50:30;;;;;;;;;;;;;;;;;;2128722;27;19930;-44
2022/08/30 02:51:30;;;;;;;;;;;;;;;;;;2132328;27;20005;-45
2022/08/30 02:52:31;;;;;;;;;;;;;;;;;;2132462;27;20415;-44
2022/08/30 02:53:32;;;;;;;;;;;;;;;;;;2132373;27;20009;-43
2022/08/30 02:54:34;;;;;;;;;;;;;;;;;;2131846;27;20364;-44
2022/08/30 02:55:35;;;;;;;;;;;;;;;;;;2132236;27;20013;-44
2022/08/30 02:56:36;;;;;;;;;;;;;;;;;;2132314;27;19923;-43
2022/08/30 02:57:37;;;;;;;;;;;;;;;;;;2132427;27;20348;-45
2022/08/30 02:58:38;;;;;;;;;;;;;;;;;;2132327;27;20022;-43
2022/08/30 02:59:42;;;;;;;;;;;;;;;;;;2132539;27;20013;-44
2022/08/30 03:00:43;;;;;;;;;;;;;;;;;;2132473;27;20017;-43
2022/08/30 03:01:44;;;;;;;;;;;;;;;;;;2132624;27;19930;-46
2022/08/30 03:02:45;;;;;;;;;;;;;;;;;;2132588;27;20292;-44
2022/08/30 03:03:46;;;;;;;;;;;;;;;;;;2132495;27;20013;-43
2022/08/30 03:04:47;;;;;;;;;;;;;;;;;;2132316;27;20424;-44
2022/08/30 03:05:48;;;;;;;;;;;;;;;;;;2132491;27;20025;-44
2022/08/30 03:06:49;;;;;;;;;;;;;;;;;;2132241;27;20404;-44
2022/08/30 03:07:50;;;;;;;;;;;;;;;;;;2132302;27;20422;-45
2022/08/30 03:08:51;;;;;;;;;;;;;;;;;;2132510;27;20114;-45
2022/08/30 03:09:52;;;;;;;;;;;;;;;;;;2132428;27;20006;-46
2022/08/30 03:10:55;;;;;;;;;;;;;;;;;;2132200;27;20413;-45
2022/08/30 03:11:56;;;;;;;;;;;;;;;;;;2131981;27;20402;-45
2022/08/30 03:12:57;;;;;;;;;;;;;;;;;;2132485;27;19923;-45
2022/08/30 03:13:58;;;;;;;;;;;;;;;;;;2132148;27;19930;-45
2022/08/30 03:14:59;;;;;;;;;;;;;;;;;;2132235;27;19930;-45
2022/08/30 03:16:00;;;;;;;;;;;;;;;;;;2132316;27;20006;-46
2022/08/30 03:17:01;;;;;;;;;;;;;;;;;;2132204;27;20332;-46
2022/08/30 03:18:01;;;;;;;;;;;;;;;;;;2132235;27;20046;-45
2022/08/30 03:19:03;;;;;;;;;;;;;;;;;;2132250;27;20030;-44
2022/08/30 03:20:03;;;;;;;;;;;;;;;;;;2132187;27;19975;-45
2022/08/30 03:21:05;;;;;;;;;;;;;;;;;;2132386;27;19957;-45
2022/08/30 03:22:06;;;;;;;;;;;;;;;;;;2132198;27;19923;-45
2022/08/30 03:23:07;;;;;;;;;;;;;;;;;;2132144;27;19924;-45
2022/08/30 03:24:07;;;;;;;;;;;;;;;;;;2132228;27;20295;-45
2022/08/30 03:25:08;;;;;;;;;;;;;;;;;;2132103;27;19923;-45
2022/08/30 03:26:11;;;;;;;;;;;;;;;;;;2132415;27;19923;-45
2022/08/30 03:27:12;;;;;;;;;;;;;;;;;;2132175;27;20013;-48
2022/08/30 03:28:13;;;;;;;;;;;;;;;;;;2132349;27;20006;-45
2022/08/30 03:29:14;;;;;;;;;;;;;;;;;;2132103;27;19927;-44
2022/08/30 03:30:14;;;;;;;;;;;;;;;;;;2132310;27;19958;-45
2022/08/30 03:31:16;;;;;;;;;;;;;;;;;;2131995;27;19929;-44
2022/08/30 03:32:16;;;;;;;;;;;;;;;;;;2132701;27;19927;-45
2022/08/30 03:33:18;;;;;;;;;;;;;;;;;;2132518;27;20470;-44
2022/08/30 03:34:20;;;;;;;;;;;;;;;;;;2132403;27;19927;-45
2022/08/30 03:35:21;;;;;;;;;;;;;;;;;;2132335;27;19944;-46
2022/08/30 03:36:22;;;;;;;;;;;;;;;;;;2132012;27;20028;-45
2022/08/30 03:37:23;;;;;;;;;;;;;;;;;;2132137;27;20430;-46
2022/08/30 03:38:27;;;;;;;;;;;;;;;;;;2132220;27;20317;-44
2022/08/30 03:39:28;;;;;;;;;;;;;;;;;;2132628;27;19923;-44
2022/08/30 03:40:29;;;;;;;;;;;;;;;;;;2132357;27;19977;-46
2022/08/30 03:41:31;;;;;;;;;;;;;;;;;;2132177;27;19931;-45
2022/08/30 03:42:32;;;;;;;;;;;;;;;;;;2132166;27;19923;-45
2022/08/30 03:43:33;;;;;;;;;;;;;;;;;;2132244;27;19923;-44
2022/08/30 03:44:33;;;;;;;;;;;;;;;;;;2131923;27;20013;-44
2022/08/30 03:45:35;;;;;;;;;;;;;;;;;;2132063;27;19936;-43
2022/08/30 03:46:35;;;;;;;;;;;;;;;;;;2132090;27;19930;-43
2022/08/30 03:47:38;;;;;;;;;;;;;;;;;;2131954;27;19966;-43
2022/08/30 03:48:38;;;;;;;;;;;;;;;;;;2132200;27;19977;-44
2022/08/30 03:49:39;;;;;;;;;;;;;;;;;;2132091;27;19934;-44
2022/08/30 03:50:40;;;;;;;;;;;;;;;;;;2132256;27;20370;-44
2022/08/30 03:51:41;;;;;;;;;;;;;;;;;;2132098;27;19923;-43
2022/08/30 03:52:44;;;;;;;;;;;;;;;;;;2131959;27;20384;-44
2022/08/30 03:53:45;;;;;;;;;;;;;;;;;;2132170;27;19927;-44
2022/08/30 03:54:46;;;;;;;;;;;;;;;;;;2131958;27;20450;-43
2022/08/30 03:55:46;;;;;;;;;;;;;;;;;;2132109;27;19923;-46
2022/08/30 03:56:47;;;;;;;;;;;;;;;;;;2131806;27;19930;-44
2022/08/30 03:57:48;;;;;;;;;;;;;;;;;;2132030;27;20310;-46
2022/08/30 03:58:49;;;;;;;;;;;;;;;;;;2132252;27;19923;-44
2022/08/30 03:59:50;;;;;;;;;;;;;;;;;;2131956;27;20356;-44
2022/08/30 04:00:51;;;;;;;;;;;;;;;;;;2132031;27;19929;-45
2022/08/30 04:01:52;;;;;;;;;;;;;;;;;;2132040;27;19924;-44
2022/08/30 04:02:53;;;;;;;;;;;;;;;;;;2131937;27;19923;-44
2022/08/30 04:03:55;;;;;;;;;;;;;;;;;;2132089;27;20369;-43
2022/08/30 04:04:56;;;;;;;;;;;;;;;;;;2131919;27;20458;-44
2022/08/30 04:05:57;;;;;;;;;;;;;;;;;;2130917;27;20497;-43
2022/08/30 04:06:58;;;;;;;;;;;;;;;;;;2131808;27;19975;-43
2022/08/30 04:07:59;;;;;;;;;;;;;;;;;;2132067;27;19966;-45
2022/08/30 04:09:00;;;;;;;;;;;;;;;;;;2131886;27;20368;-44
2022/08/30 04:10:01;;;;;;;;;;;;;;;;;;2132048;27;20014;-46
2022/08/30 04:11:02;;;;;;;;;;;;;;;;;;2131448;27;19923;-46
2022/08/30 04:12:02;;;;;;;;;;;;;;;;;;2123138;27;19927;-45
2022/08/30 04:13:04;;;;;;;;;;;;;;;;;;2123468;28;19934;-45
2022/08/30 04:14:05;;;;;;;;;;;;;;;;;;2123154;28;20279;-46
2022/08/30 04:15:06;;;;;;;;;;;;;;;;;;2123851;28;19923;-45
2022/08/30 04:16:07;;;;;;;;;;;;;;;;;;2123436;28;20034;-43
2022/08/30 04:17:09;;;;;;;;;;;;;;;;;;2123194;27;19931;-44
2022/08/30 04:18:09;;;;;;;;;;;;;;;;;;2123240;28;20002;-44
2022/08/30 04:19:10;;;;;;;;;;;;;;;;;;2123306;28;20158;-43
2022/08/30 04:20:11;;;;;;;;;;;;;;;;;;2123368;28;19924;-43
2022/08/30 04:21:12;;;;;;;;;;;;;;;;;;2123170;27;20019;-43
2022/08/30 04:22:14;;;;;;;;;;;;;;;;;;2123347;28;19934;-44
2022/08/30 04:23:15;;;;;;;;;;;;;;;;;;2123287;28;19955;-43
2022/08/30 04:24:16;;;;;;;;;;;;;;;;;;2123488;28;20002;-45
2022/08/30 04:25:17;;;;;;;;;;;;;;;;;;2123165;28;20447;-45
2022/08/30 04:26:18;;;;;;;;;;;;;;;;;;2123283;27;19923;-45
2022/08/30 04:27:19;;;;;;;;;;;;;;;;;;2123309;28;20383;-46
2022/08/30 04:28:19;;;;;;;;;;;;;;;;;;2123216;28;19930;-44
2022/08/30 04:29:21;;;;;;;;;;;;;;;;;;2123527;28;20395;-45
2022/08/30 04:30:21;;;;;;;;;;;;;;;;;;2123601;28;20429;-45
2022/08/30 04:31:22;;;;;;;;;;;;;;;;;;2123159;27;19923;-45
2022/08/30 04:32:23;;;;;;;;;;;;;;;;;;2123185;28;20380;-43
2022/08/30 04:33:24;;;;;;;;;;;;;;;;;;2123395;28;19927;-45
2022/08/30 04:34:25;;;;;;;;;;;;;;;;;;2123390;28;20018;-46
2022/08/30 04:35:27;;;;;;;;;;;;;;;;;;2123208;28;19970;-44
2022/08/30 04:36:28;;;;;;;;;;;;;;;;;;2123110;27;19924;-45
2022/08/30 04:37:29;;;;;;;;;;;;;;;;;;2123225;28;20380;-45
2022/08/30 04:38:29;;;;;;;;;;;;;;;;;;2123299;28;19971;-45
2022/08/30 04:39:31;;;;;;;;;;;;;;;;;;2123082;28;19973;-45
2022/08/30 04:40:31;;;;;;;;;;;;;;;;;;2123031;27;20463;-45
2022/08/30 04:41:32;;;;;;;;;;;;;;;;;;2123081;27;19929;-45
2022/08/30 04:42:33;;;;;;;;;;;;;;;;;;2124485;27;19935;-44
2022/08/30 04:43:35;;;;;;;;;;;;;;;;;;2131669;27;19931;-43
2022/08/30 04:44:36;;;;;;;;;;;;;;;;;;2131761;27;19923;-45
2022/08/30 04:45:38;;;;;;;;;;;;;;;;;;2131620;27;19930;-45
2022/08/30 04:46:39;;;;;;;;;;;;;;;;;;2131710;27;19954;-45
2022/08/30 04:47:45;;;;;;;;;;;;;;;;;;2131716;27;19923;-45
2022/08/30 04:48:46;;;;;;;;;;;;;;;;;;2131647;27;19930;-45
2022/08/30 04:49:47;;;;;;;;;;;;;;;;;;2131766;27;19930;-46
2022/08/30 04:50:47;;;;;;;;;;;;;;;;;;2131570;27;19998;-49
2022/08/30 04:51:48;;;;;;;;;;;;;;;;;;2131747;27;20101;-46
2022/08/30 04:52:49;;;;;;;;;;;;;;;;;;2131807;27;20317;-45
2022/08/30 04:53:50;;;;;;;;;;;;;;;;;;2131630;27;19927;-46
2022/08/30 04:54:51;;;;;;;;;;;;;;;;;;2131862;27;19975;-46
2022/08/30 04:55:52;;;;;;;;;;;;;;;;;;2131640;27;19927;-45
2022/08/30 04:56:53;;;;;;;;;;;;;;;;;;2131756;27;19960;-46
2022/08/30 04:57:54;;;;;;;;;;;;;;;;;;2131750;27;19958;-44
2022/08/30 04:58:54;;;;;;;;;;;;;;;;;;2131725;27;19923;-44
2022/08/30 04:59:55;;;;;;;;;;;;;;;;;;2131550;27;20368;-44
2022/08/30 05:00:56;;;;;;;;;;;;;;;;;;2131783;27;20291;-44
2022/08/30 05:01:57;;;;;;;;;;;;;;;;;;2131574;27;19923;-44
2022/08/30 05:02:58;;;;;;;;;;;;;;;;;;2131600;27;19954;-45
2022/08/30 05:03:59;;;;;;;;;;;;;;;;;;2131592;27;20440;-45
2022/08/30 05:06:19;;;;;;;;;;;;;;;;;;2131482;27;20265;-44
2022/08/30 05:07:20;;;;;;;;;;;;;;;;;;2131759;27;19934;-44
2022/08/30 05:08:21;;;;;;;;;;;;;;;;;;2131675;27;19927;-46
2022/08/30 05:09:24;;;;;;;;;;;;;;;;;;2131717;27;20026;-45
2022/08/30 05:10:26;;;;;;;;;;;;;;;;;;2132045;27;19927;-45
2022/08/30 05:11:26;;;;;;;;;;;;;;;;;;2131369;27;20399;-45
2022/08/30 05:12:27;;;;;;;;;;;;;;;;;;2131308;27;20029;-45
2022/08/30 05:13:28;;;;;;;;;;;;;;;;;;2131490;27;19965;-44
2022/08/30 05:14:36;;;;;;;;;;;;;;;;;;2131613;27;19929;-44
2022/08/30 05:15:38;;;;;;;;;;;;;;;;;;2131485;27;19929;-45
2022/08/30 05:16:40;;;;;;;;;;;;;;;;;;2131541;27;19930;-45
2022/08/30 05:17:40;;;;;;;;;;;;;;;;;;2132528;27;20393;-44
2022/08/30 05:18:41;;;;;;;;;;;;;;;;;;2133158;27;19935;-45
2022/08/30 05:19:42;;;;;;;;;;;;;;;;;;2133290;27;20010;-45
2022/08/30 05:20:43;;;;;;;;;;;;;;;;;;2133071;27;19923;-44
2022/08/30 05:21:44;;;;;;;;;;;;;;;;;;2133033;27;19958;-45
2022/08/30 05:22:48;;;;;;;;;;;;;;;;;;2124829;27;19959;-45
2022/08/30 05:23:49;;;;;;;;;;;;;;;;;;2124728;28;19999;-45
2022/08/30 05:24:50;;;;;;;;;;;;;;;;;;2124467;28;20022;-44
2022/08/30 05:25:51;;;;;;;;;;;;;;;;;;2124495;28;19923;-43
2022/08/30 05:26:52;;;;;;;;;;;;;;;;;;2124347;28;19924;-45
2022/08/30 05:27:53;;;;;;;;;;;;;;;;;;2124369;28;20161;-44
2022/08/30 05:28:54;;;;;;;;;;;;;;;;;;2124783;28;20415;-45
2022/08/30 05:29:55;;;;;;;;;;;;;;;;;;2124643;28;19924;-46
2022/08/30 05:30:55;;;;;;;;;;;;;;;;;;2124408;28;20010;-45
2022/08/30 05:31:56;;;;;;;;;;;;;;;;;;2124462;28;19984;-46
2022/08/30 05:32:57;;;;;;;;;;;;;;;;;;2124614;28;19923;-46
2022/08/30 05:33:58;;;;;;;;;;;;;;;;;;2124440;28;19927;-46
2022/08/30 05:34:59;;;;;;;;;;;;;;;;;;2124471;28;20002;-47
2022/08/30 05:36:00;;;;;;;;;;;;;;;;;;2124309;28;20454;-45
2022/08/30 05:37:01;;;;;;;;;;;;;;;;;;2127650;27;20462;-46
2022/08/30 05:38:02;;;;;;;;;;;;;;;;;;2132878;27;20002;-46
2022/08/30 05:39:03;;;;;;;;;;;;;;;;;;2132662;27;19930;-47
2022/08/30 05:40:05;;;;;;;;;;;;;;;;;;2133218;27;19974;-46
2022/08/30 05:41:06;;;;;;;;;;;;;;;;;;2132984;27;20361;-46
2022/08/30 05:42:11;;;;;;;;;;;;;;;;;;2132848;27;19954;-46
2022/08/30 05:43:13;;;;;;;;;;;;;;;;;;2132875;27;19923;-47
2022/08/30 05:44:13;;;;;;;;;;;;;;;;;;2132941;27;20007;-47
2022/08/30 05:45:14;;;;;;;;;;;;;;;;;;2133062;27;20367;-47
2022/08/30 05:46:18;;;;;;;;;;;;;;;;;;2132904;27;19923;-47
2022/08/30 05:47:19;;;;;;;;;;;;;;;;;;2132980;27;19961;-46
2022/08/30 05:48:19;;;;;;;;;;;;;;;;;;2133001;27;19923;-46
2022/08/30 05:49:20;;;;;;;;;;;;;;;;;;2132918;27;19959;-44
2022/08/30 05:50:22;;;;;;;;;;;;;;;;;;2132776;27;20501;-45
2022/08/30 05:51:23;;;;;;;;;;;;;;;;;;2132837;27;20176;-44
2022/08/30 05:52:23;;;;;;;;;;;;;;;;;;2132912;27;19927;-45
2022/08/30 05:53:24;;;;;;;;;;;;;;;;;;2132873;27;19923;-46
2022/08/30 05:54:25;;;;;;;;;;;;;;;;;;2132805;27;20431;-44
2022/08/30 05:55:26;;;;;;;;;;;;;;;;;;2133198;27;19969;-45
2022/08/30 05:56:27;;;;;;;;;;;;;;;;;;2132740;27;20283;-44
2022/08/30 05:57:28;;;;;;;;;;;;;;;;;;2132749;27;20014;-44
2022/08/30 05:58:29;;;;;;;;;;;;;;;;;;2132678;27;19962;-44
2022/08/30 05:59:30;;;;;;;;;;;;;;;;;;2133024;27;20033;-47
2022/08/30 06:00:31;;;;;;;;;;;;;;;;;;2132916;27;19924;-43
2022/08/30 06:01:32;;;;;;;;;;;;;;;;;;2133056;27;19923;-45
2022/08/30 06:02:33;;;;;;;;;;;;;;;;;;2132796;27;20410;-45
2022/08/30 06:03:34;;;;;;;;;;;;;;;;;;2133030;27;19977;-44
2022/08/30 06:04:35;;;;;;;;;;;;;;;;;;2132744;27;19931;-44
2022/08/30 06:05:36;;;;;;;;;;;;;;;;;;2132797;27;19923;-43
2022/08/30 06:06:37;;;;;;;;;;;;;;;;;;2132723;27;19961;-45
2022/08/30 06:07:38;;;;;;;;;;;;;;;;;;2132866;27;19923;-45
2022/08/30 06:08:39;;;;;;;;;;;;;;;;;;2132954;27;20455;-45
2022/08/30 06:09:40;;;;;;;;;;;;;;;;;;2132693;27;19927;-47
2022/08/30 06:10:40;;;;;;;;;;;;;;;;;;2132807;27;20383;-46
2022/08/30 06:11:41;;;;;;;;;;;;;;;;;;2126446;27;19930;-44
2022/08/30 06:12:42;;;;;;;;;;;;;;;;;;2124128;28;20026;-45
2022/08/30 06:13:43;;;;;;;;;;;;;;;;;;2124274;28;19924;-45
2022/08/30 06:14:44;;;;;;;;;;;;;;;;;;2124031;28;19934;-47
2022/08/30 06:15:45;;;;;;;;;;;;;;;;;;2124449;28;19943;-44
2022/08/30 06:16:46;;;;;;;;;;;;;;;;;;2124065;27;19923;-43
2022/08/30 06:17:47;;;;;;;;;;;;;;;;;;2124454;28;19998;-44
2022/08/30 06:18:48;;;;;;;;;;;;;;;;;;2124658;28;20003;-45
2022/08/30 06:19:49;;;;;;;;;;;;;;;;;;2124068;28;19970;-44
2022/08/30 06:20:50;;;;;;;;;;;;;;;;;;2124211;28;20246;-46
2022/08/30 06:21:51;;;;;;;;;;;;;;;;;;2124028;27;20317;-45
2022/08/30 06:22:52;;;;;;;;;;;;;;;;;;2123936;28;19971;-46
2022/08/30 06:23:53;;;;;;;;;;;;;;;;;;2124198;28;20018;-44
2022/08/30 06:24:53;;;;;;;;;;;;;;;;;;2124047;28;19972;-46
2022/08/30 06:25:58;;;;;;;;;;;;;;;;;;2124074;28;19923;-45
2022/08/30 06:26:58;;;;;;;;;;;;;;;;;;2123991;27;20329;-45
2022/08/30 06:28:00;;;;;;;;;;;;;;;;;;2124234;28;19952;-46
2022/08/30 06:29:00;;;;;;;;;;;;;;;;;;2123161;27;19937;-45
2022/08/30 06:30:01;;;;;;;;;;;;;;;;;;2123903;28;19924;-46
2022/08/30 06:31:02;;;;;;;;;;;;;;;;;;2124141;28;19962;-46
2022/08/30 06:32:03;;;;;;;;;;;;;;;;;;2125003;27;19930;-46
2022/08/30 06:33:04;;;;;;;;;;;;;;;;;;2124237;27;20018;-45
2022/08/30 06:34:05;;;;;;;;;;;;;;;;;;2124153;28;19923;-45
2022/08/30 06:35:06;;;;;;;;;;;;;;;;;;2125566;27;19971;-45
2022/08/30 06:36:07;;;;;;;;;;;;;;;;;;2132547;27;19997;-45
2022/08/30 06:37:08;;;;;;;;;;;;;;;;;;2132444;27;19923;-44
2022/08/30 06:38:08;;;;;;;;;;;;;;;;;;2132911;27;19923;-46
2022/08/30 06:39:10;;;;;;;;;;;;;;;;;;2132655;27;19923;-45
2022/08/30 06:40:12;;;;;;;;;;;;;;;;;;2132698;27;20283;-47
2022/08/30 06:41:13;;;;;;;;;;;;;;;;;;2132307;27;19931;-45
2022/08/30 06:42:14;;;;;;;;;;;;;;;;;;2132564;27;20471;-45
2022/08/30 06:43:15;;;;;;;;;;;;;;;;;;2132892;27;19927;-45
2022/08/30 06:44:16;;;;;;;;;;;;;;;;;;2132405;27;19950;-45
2022/08/30 06:45:17;;;;;;;;;;;;;;;;;;2132348;27;19966;-46
2022/08/30 06:46:18;;;;;;;;;;;;;;;;;;2132579;27;19923;-46
2022/08/30 06:47:19;;;;;;;;;;;;;;;;;;2132532;27;20319;-44
2022/08/30 06:48:20;;;;;;;;;;;;;;;;;;2132976;27;20396;-44
2022/08/30 06:49:21;;;;;;;;;;;;;;;;;;2132722;27;19923;-45
2022/08/30 06:50:22;;;;;;;;;;;;;;;;;;2132346;27;19923;-44
2022/08/30 06:51:23;;;;;;;;;;;;;;;;;;2132786;27;20014;-44
2022/08/30 06:52:24;;;;;;;;;;;;;;;;;;2132410;27;20017;-44
2022/08/30 06:53:25;;;;;;;;;;;;;;;;;;2132311;27;19927;-43
2022/08/30 06:54:26;;;;;;;;;;;;;;;;;;2132329;27;19972;-43
2022/08/30 06:55:27;;;;;;;;;;;;;;;;;;2132392;27;19923;-43
2022/08/30 06:56:28;;;;;;;;;;;;;;;;;;2132481;27;19923;-43
2022/08/30 06:57:29;;;;;;;;;;;;;;;;;;2132389;27;20048;-43
2022/08/30 06:58:30;;;;;;;;;;;;;;;;;;2132489;27;20048;-45
2022/08/30 06:59:31;;;;;;;;;;;;;;;;;;2132632;27;20002;-45